sensor_id;sensor_type;location;lat;lon;timestamp;P1;durP1;ratioP1;P2;durP2;ratioP2
54139;SDS011;40046;53.254;5.900;2022-08-21T00:01:46;9.07;;;5.18;;
54139;SDS011;40046;53.254;5.900;2022-08-21T00:04:12;9.35;;;5.00;;
54139;SDS011;40046;53.254;5.900;2022-08-21T00:06:38;9.02;;;5.30;;
54139;SDS011;40046;53.254;5.900;2022-08-21T00:09:05;9.40;;;4.93;;
54139;SDS011;40046;53.254;5.900;2022-08-21T00:11:33;9.30;;;5.22;;
54139;SDS011;40046;53.254;5.900;2022-08-21T00:14:00;9.93;;;5.82;;
54139;SDS011;40046;53.254;5.900;2022-08-21T00:16:26;9.75;;;5.28;;
54139;SDS011;40046;53.254;5.900;2022-08-21T00:18:52;9.35;;;5.40;;
54139;SDS011;40046;53.254;5.900;2022-08-21T00:21:17;10.93;;;5.22;;
54139;SDS011;40046;53.254;5.900;2022-08-21T00:23:43;9.40;;;5.28;;
54139;SDS011;40046;53.254;5.900;2022-08-21T00:26:09;7.63;;;4.82;;
54139;SDS011;40046;53.254;5.900;2022-08-21T00:28:35;9.43;;;5.47;;
54139;SDS011;40046;53.254;5.900;2022-08-21T00:31:01;9.98;;;5.65;;
54139;SDS011;40046;53.254;5.900;2022-08-21T00:33:29;10.82;;;5.30;;
54139;SDS011;40046;53.254;5.900;2022-08-21T00:35:55;7.97;;;5.18;;
54139;SDS011;40046;53.254;5.900;2022-08-21T00:38:21;8.65;;;5.03;;
54139;SDS011;40046;53.254;5.900;2022-08-21T00:40:53;11.75;;;5.45;;
54139;SDS011;40046;53.254;5.900;2022-08-21T00:43:22;10.75;;;5.72;;
54139;SDS011;40046;53.254;5.900;2022-08-21T00:45:51;7.80;;;4.80;;
54139;SDS011;40046;53.254;5.900;2022-08-21T00:48:18;11.85;;;6.90;;
54139;SDS011;40046;53.254;5.900;2022-08-21T00:51:20;8.60;;;4.82;;
54139;SDS011;40046;53.254;5.900;2022-08-21T00:53:41;9.35;;;5.40;;
54139;SDS011;40046;53.254;5.900;2022-08-21T00:56:09;12.15;;;5.82;;
54139;SDS011;40046;53.254;5.900;2022-08-21T00:58:37;10.68;;;5.88;;
54139;SDS011;40046;53.254;5.900;2022-08-21T01:01:07;9.20;;;5.70;;
54139;SDS011;40046;53.254;5.900;2022-08-21T01:03:33;13.20;;;5.85;;
54139;SDS011;40046;53.254;5.900;2022-08-21T01:06:01;6.25;;;4.97;;
54139;SDS011;40046;53.254;5.900;2022-08-21T01:08:29;11.15;;;5.82;;
54139;SDS011;40046;53.254;5.900;2022-08-21T01:10:56;10.68;;;6.07;;
54139;SDS011;40046;53.254;5.900;2022-08-21T01:13:24;10.60;;;5.15;;
54139;SDS011;40046;53.254;5.900;2022-08-21T01:15:53;10.10;;;6.10;;
54139;SDS011;40046;53.254;5.900;2022-08-21T01:18:21;7.70;;;5.03;;
54139;SDS011;40046;53.254;5.900;2022-08-21T01:21:05;9.70;;;5.75;;
54139;SDS011;40046;53.254;5.900;2022-08-21T01:23:37;8.98;;;5.57;;
54139;SDS011;40046;53.254;5.900;2022-08-21T01:26:05;10.30;;;6.18;;
54139;SDS011;40046;53.254;5.900;2022-08-21T01:28:33;9.68;;;5.85;;
54139;SDS011;40046;53.254;5.900;2022-08-21T01:31:02;9.80;;;6.90;;
54139;SDS011;40046;53.254;5.900;2022-08-21T01:33:32;12.52;;;7.15;;
54139;SDS011;40046;53.254;5.900;2022-08-21T01:35:58;17.45;;;8.52;;
54139;SDS011;40046;53.254;5.900;2022-08-21T01:38:25;16.05;;;7.72;;
54139;SDS011;40046;53.254;5.900;2022-08-21T01:40:51;11.27;;;6.93;;
54139;SDS011;40046;53.254;5.900;2022-08-21T01:43:17;12.77;;;6.97;;
54139;SDS011;40046;53.254;5.900;2022-08-21T01:45:43;9.43;;;6.68;;
54139;SDS011;40046;53.254;5.900;2022-08-21T01:48:09;9.27;;;6.20;;
54139;SDS011;40046;53.254;5.900;2022-08-21T01:50:34;14.35;;;7.35;;
54139;SDS011;40046;53.254;5.900;2022-08-21T01:53:00;11.55;;;6.85;;
54139;SDS011;40046;53.254;5.900;2022-08-21T01:55:26;10.27;;;7.35;;
54139;SDS011;40046;53.254;5.900;2022-08-21T01:57:52;8.70;;;6.22;;
54139;SDS011;40046;53.254;5.900;2022-08-21T02:00:19;13.50;;;7.03;;
54139;SDS011;40046;53.254;5.900;2022-08-21T02:02:48;9.75;;;7.05;;
54139;SDS011;40046;53.254;5.900;2022-08-21T02:05:14;12.43;;;7.43;;
54139;SDS011;40046;53.254;5.900;2022-08-21T02:07:42;12.90;;;7.05;;
54139;SDS011;40046;53.254;5.900;2022-08-21T02:10:11;11.70;;;7.03;;
54139;SDS011;40046;53.254;5.900;2022-08-21T02:12:38;9.82;;;6.65;;
54139;SDS011;40046;53.254;5.900;2022-08-21T02:15:04;15.45;;;7.68;;
54139;SDS011;40046;53.254;5.900;2022-08-21T02:17:42;10.63;;;6.97;;
54139;SDS011;40046;53.254;5.900;2022-08-21T02:20:25;12.38;;;6.68;;
54139;SDS011;40046;53.254;5.900;2022-08-21T02:22:51;15.10;;;7.88;;
54139;SDS011;40046;53.254;5.900;2022-08-21T02:25:18;9.23;;;6.90;;
54139;SDS011;40046;53.254;5.900;2022-08-21T02:27:45;9.40;;;6.88;;
54139;SDS011;40046;53.254;5.900;2022-08-21T02:30:14;10.00;;;6.88;;
54139;SDS011;40046;53.254;5.900;2022-08-21T02:32:44;14.90;;;7.75;;
54139;SDS011;40046;53.254;5.900;2022-08-21T02:35:11;12.35;;;7.78;;
54139;SDS011;40046;53.254;5.900;2022-08-21T02:37:51;10.48;;;6.90;;
54139;SDS011;40046;53.254;5.900;2022-08-21T02:40:20;9.13;;;6.22;;
54139;SDS011;40046;53.254;5.900;2022-08-21T02:42:48;8.15;;;6.82;;
54139;SDS011;40046;53.254;5.900;2022-08-21T02:45:15;8.95;;;6.30;;
54139;SDS011;40046;53.254;5.900;2022-08-21T02:47:52;11.25;;;6.32;;
54139;SDS011;40046;53.254;5.900;2022-08-21T02:50:21;12.50;;;7.63;;
54139;SDS011;40046;53.254;5.900;2022-08-21T02:52:48;13.18;;;7.43;;
54139;SDS011;40046;53.254;5.900;2022-08-21T02:55:15;14.20;;;7.05;;
54139;SDS011;40046;53.254;5.900;2022-08-21T02:57:41;10.55;;;6.72;;
54139;SDS011;40046;53.254;5.900;2022-08-21T03:00:07;11.10;;;6.22;;
54139;SDS011;40046;53.254;5.900;2022-08-21T03:02:36;12.63;;;7.13;;
54139;SDS011;40046;53.254;5.900;2022-08-21T03:05:02;14.65;;;7.07;;
54139;SDS011;40046;53.254;5.900;2022-08-21T03:07:29;10.77;;;6.63;;
54139;SDS011;40046;53.254;5.900;2022-08-21T03:09:55;9.43;;;6.40;;
54139;SDS011;40046;53.254;5.900;2022-08-21T03:12:21;11.00;;;7.03;;
54139;SDS011;40046;53.254;5.900;2022-08-21T03:14:47;13.55;;;6.32;;
54139;SDS011;40046;53.254;5.900;2022-08-21T03:17:13;10.82;;;5.68;;
54139;SDS011;40046;53.254;5.900;2022-08-21T03:19:39;10.07;;;5.97;;
54139;SDS011;40046;53.254;5.900;2022-08-21T03:22:05;10.32;;;5.95;;
54139;SDS011;40046;53.254;5.900;2022-08-21T03:24:31;13.05;;;6.65;;
54139;SDS011;40046;53.254;5.900;2022-08-21T03:26:56;12.25;;;6.00;;
54139;SDS011;40046;53.254;5.900;2022-08-21T03:29:22;11.07;;;6.18;;
54139;SDS011;40046;53.254;5.900;2022-08-21T03:31:48;12.10;;;6.68;;
54139;SDS011;40046;53.254;5.900;2022-08-21T03:34:14;12.27;;;6.15;;
54139;SDS011;40046;53.254;5.900;2022-08-21T03:36:40;10.20;;;6.50;;
54139;SDS011;40046;53.254;5.900;2022-08-21T03:39:05;11.30;;;7.85;;
54139;SDS011;40046;53.254;5.900;2022-08-21T03:41:31;12.70;;;6.40;;
54139;SDS011;40046;53.254;5.900;2022-08-21T03:43:57;9.07;;;6.40;;
54139;SDS011;40046;53.254;5.900;2022-08-21T03:46:24;15.63;;;6.82;;
54139;SDS011;40046;53.254;5.900;2022-08-21T03:48:50;16.63;;;6.53;;
54139;SDS011;40046;53.254;5.900;2022-08-21T03:51:18;16.27;;;6.90;;
54139;SDS011;40046;53.254;5.900;2022-08-21T03:53:44;14.38;;;6.72;;
54139;SDS011;40046;53.254;5.900;2022-08-21T03:56:10;11.52;;;7.18;;
54139;SDS011;40046;53.254;5.900;2022-08-21T03:58:36;9.82;;;5.93;;
54139;SDS011;40046;53.254;5.900;2022-08-21T04:01:03;12.00;;;7.03;;
54139;SDS011;40046;53.254;5.900;2022-08-21T04:03:31;15.32;;;7.47;;
54139;SDS011;40046;53.254;5.900;2022-08-21T04:05:59;11.00;;;7.00;;
54139;SDS011;40046;53.254;5.900;2022-08-21T04:08:24;10.35;;;7.10;;
54139;SDS011;40046;53.254;5.900;2022-08-21T04:10:51;13.05;;;5.93;;
54139;SDS011;40046;53.254;5.900;2022-08-21T04:13:19;12.40;;;6.60;;
54139;SDS011;40046;53.254;5.900;2022-08-21T04:15:45;10.82;;;6.05;;
54139;SDS011;40046;53.254;5.900;2022-08-21T04:18:11;11.27;;;6.93;;
54139;SDS011;40046;53.254;5.900;2022-08-21T04:20:38;19.15;;;8.20;;
54139;SDS011;40046;53.254;5.900;2022-08-21T04:23:06;14.15;;;7.13;;
54139;SDS011;40046;53.254;5.900;2022-08-21T04:25:32;12.27;;;6.65;;
54139;SDS011;40046;53.254;5.900;2022-08-21T04:27:57;15.00;;;7.13;;
54139;SDS011;40046;53.254;5.900;2022-08-21T04:30:24;13.75;;;7.00;;
54139;SDS011;40046;53.254;5.900;2022-08-21T04:32:50;10.13;;;6.18;;
54139;SDS011;40046;53.254;5.900;2022-08-21T04:35:18;11.90;;;6.93;;
54139;SDS011;40046;53.254;5.900;2022-08-21T04:37:45;10.77;;;6.78;;
54139;SDS011;40046;53.254;5.900;2022-08-21T04:40:12;13.52;;;7.68;;
54139;SDS011;40046;53.254;5.900;2022-08-21T04:43:02;13.38;;;7.75;;
54139;SDS011;40046;53.254;5.900;2022-08-21T04:45:39;11.10;;;6.57;;
54139;SDS011;40046;53.254;5.900;2022-08-21T04:48:07;11.18;;;6.60;;
54139;SDS011;40046;53.254;5.900;2022-08-21T04:56:07;14.98;;;6.53;;
54139;SDS011;40046;53.254;5.900;2022-08-21T05:01:03;13.38;;;6.95;;
54139;SDS011;40046;53.254;5.900;2022-08-21T05:03:32;9.15;;;6.90;;
54139;SDS011;40046;53.254;5.900;2022-08-21T05:06:01;13.10;;;7.72;;
54139;SDS011;40046;53.254;5.900;2022-08-21T05:08:31;10.77;;;6.68;;
54139;SDS011;40046;53.254;5.900;2022-08-21T05:10:57;12.55;;;7.60;;
54139;SDS011;40046;53.254;5.900;2022-08-21T05:13:23;9.95;;;6.63;;
54139;SDS011;40046;53.254;5.900;2022-08-21T05:15:49;17.35;;;7.80;;
54139;SDS011;40046;53.254;5.900;2022-08-21T05:18:15;10.50;;;6.63;;
54139;SDS011;40046;53.254;5.900;2022-08-21T05:20:41;11.57;;;7.47;;
54139;SDS011;40046;53.254;5.900;2022-08-21T05:23:09;10.43;;;7.00;;
54139;SDS011;40046;53.254;5.900;2022-08-21T05:25:37;12.90;;;8.00;;
54139;SDS011;40046;53.254;5.900;2022-08-21T05:28:03;9.52;;;6.22;;
54139;SDS011;40046;53.254;5.900;2022-08-21T05:30:29;15.50;;;6.85;;
54139;SDS011;40046;53.254;5.900;2022-08-21T05:32:56;14.57;;;7.20;;
54139;SDS011;40046;53.254;5.900;2022-08-21T05:35:23;11.73;;;6.63;;
54139;SDS011;40046;53.254;5.900;2022-08-21T05:37:49;13.05;;;7.03;;
54139;SDS011;40046;53.254;5.900;2022-08-21T05:40:15;10.15;;;7.45;;
54139;SDS011;40046;53.254;5.900;2022-08-21T05:42:41;9.23;;;7.13;;
54139;SDS011;40046;53.254;5.900;2022-08-21T05:45:07;15.13;;;7.05;;
54139;SDS011;40046;53.254;5.900;2022-08-21T05:47:33;11.15;;;7.55;;
54139;SDS011;40046;53.254;5.900;2022-08-21T05:49:59;12.10;;;6.30;;
54139;SDS011;40046;53.254;5.900;2022-08-21T05:52:25;15.13;;;6.65;;
54139;SDS011;40046;53.254;5.900;2022-08-21T05:54:50;12.13;;;6.88;;
54139;SDS011;40046;53.254;5.900;2022-08-21T05:57:19;19.08;;;7.90;;
54139;SDS011;40046;53.254;5.900;2022-08-21T05:59:45;10.65;;;6.15;;
54139;SDS011;40046;53.254;5.900;2022-08-21T06:02:11;15.07;;;7.40;;
54139;SDS011;40046;53.254;5.900;2022-08-21T06:04:37;16.95;;;7.22;;
54139;SDS011;40046;53.254;5.900;2022-08-21T06:07:04;11.73;;;6.85;;
54139;SDS011;40046;53.254;5.900;2022-08-21T06:09:31;14.55;;;7.32;;
54139;SDS011;40046;53.254;5.900;2022-08-21T06:11:57;7.97;;;6.22;;
54139;SDS011;40046;53.254;5.900;2022-08-21T06:14:23;12.73;;;6.75;;
54139;SDS011;40046;53.254;5.900;2022-08-21T06:16:48;10.70;;;6.10;;
54139;SDS011;40046;53.254;5.900;2022-08-21T06:19:14;14.27;;;6.97;;
54139;SDS011;40046;53.254;5.900;2022-08-21T06:21:40;12.13;;;6.90;;
54139;SDS011;40046;53.254;5.900;2022-08-21T06:24:06;9.88;;;5.70;;
54139;SDS011;40046;53.254;5.900;2022-08-21T06:26:32;10.70;;;5.93;;
54139;SDS011;40046;53.254;5.900;2022-08-21T06:28:58;11.27;;;6.47;;
54139;SDS011;40046;53.254;5.900;2022-08-21T06:31:24;14.50;;;7.10;;
54139;SDS011;40046;53.254;5.900;2022-08-21T06:33:52;13.43;;;6.53;;
54139;SDS011;40046;53.254;5.900;2022-08-21T06:36:18;15.38;;;6.05;;
54139;SDS011;40046;53.254;5.900;2022-08-21T06:38:45;12.27;;;7.65;;
54139;SDS011;40046;53.254;5.900;2022-08-21T06:41:11;12.77;;;6.70;;
54139;SDS011;40046;53.254;5.900;2022-08-21T06:43:37;9.25;;;5.90;;
54139;SDS011;40046;53.254;5.900;2022-08-21T06:46:03;12.75;;;6.05;;
54139;SDS011;40046;53.254;5.900;2022-08-21T06:48:29;12.65;;;6.45;;
54139;SDS011;40046;53.254;5.900;2022-08-21T06:50:58;13.90;;;6.60;;
54139;SDS011;40046;53.254;5.900;2022-08-21T06:53:24;14.73;;;5.75;;
54139;SDS011;40046;53.254;5.900;2022-08-21T06:55:50;10.80;;;6.10;;
54139;SDS011;40046;53.254;5.900;2022-08-21T06:58:17;12.55;;;6.15;;
54139;SDS011;40046;53.254;5.900;2022-08-21T07:00:46;12.65;;;5.20;;
54139;SDS011;40046;53.254;5.900;2022-08-21T07:03:24;13.10;;;5.53;;
54139;SDS011;40046;53.254;5.900;2022-08-21T07:05:53;10.45;;;5.85;;
54139;SDS011;40046;53.254;5.900;2022-08-21T07:08:19;9.70;;;6.00;;
54139;SDS011;40046;53.254;5.900;2022-08-21T07:10:46;9.65;;;5.80;;
54139;SDS011;40046;53.254;5.900;2022-08-21T07:13:13;10.35;;;5.38;;
54139;SDS011;40046;53.254;5.900;2022-08-21T07:15:40;11.35;;;5.25;;
54139;SDS011;40046;53.254;5.900;2022-08-21T07:18:06;10.75;;;6.00;;
54139;SDS011;40046;53.254;5.900;2022-08-21T07:20:32;8.75;;;4.78;;
54139;SDS011;40046;53.254;5.900;2022-08-21T07:22:59;8.63;;;4.45;;
54139;SDS011;40046;53.254;5.900;2022-08-21T07:25:28;12.43;;;5.72;;
54139;SDS011;40046;53.254;5.900;2022-08-21T07:27:54;7.90;;;4.05;;
54139;SDS011;40046;53.254;5.900;2022-08-21T07:30:20;13.00;;;6.35;;
54139;SDS011;40046;53.254;5.900;2022-08-21T07:32:47;13.52;;;5.25;;
54139;SDS011;40046;53.254;5.900;2022-08-21T07:35:14;11.57;;;5.00;;
54139;SDS011;40046;53.254;5.900;2022-08-21T07:37:40;12.20;;;4.65;;
54139;SDS011;40046;53.254;5.900;2022-08-21T07:40:07;9.70;;;4.90;;
54139;SDS011;40046;53.254;5.900;2022-08-21T07:42:33;9.40;;;4.22;;
54139;SDS011;40046;53.254;5.900;2022-08-21T07:44:59;20.92;;;5.20;;
54139;SDS011;40046;53.254;5.900;2022-08-21T07:47:24;12.68;;;4.55;;
54139;SDS011;40046;53.254;5.900;2022-08-21T07:49:50;8.32;;;3.20;;
54139;SDS011;40046;53.254;5.900;2022-08-21T07:52:16;11.73;;;4.45;;
54139;SDS011;40046;53.254;5.900;2022-08-21T07:54:42;9.80;;;3.90;;
54139;SDS011;40046;53.254;5.900;2022-08-21T07:57:08;8.40;;;2.85;;
54139;SDS011;40046;53.254;5.900;2022-08-21T07:59:34;11.18;;;2.70;;
54139;SDS011;40046;53.254;5.900;2022-08-21T08:01:59;8.90;;;2.70;;
54139;SDS011;40046;53.254;5.900;2022-08-21T08:04:25;11.40;;;2.90;;
54139;SDS011;40046;53.254;5.900;2022-08-21T08:06:51;8.77;;;2.55;;
54139;SDS011;40046;53.254;5.900;2022-08-21T08:09:17;10.88;;;2.63;;
54139;SDS011;40046;53.254;5.900;2022-08-21T08:11:42;8.32;;;2.50;;
54139;SDS011;40046;53.254;5.900;2022-08-21T08:14:08;13.38;;;2.67;;
54139;SDS011;40046;53.254;5.900;2022-08-21T08:16:35;13.27;;;3.13;;
54139;SDS011;40046;53.254;5.900;2022-08-21T08:19:01;10.05;;;3.03;;
54139;SDS011;40046;53.254;5.900;2022-08-21T08:21:28;12.30;;;3.78;;
54139;SDS011;40046;53.254;5.900;2022-08-21T08:23:54;11.25;;;2.65;;
54139;SDS011;40046;53.254;5.900;2022-08-21T08:26:20;9.20;;;2.72;;
54139;SDS011;40046;53.254;5.900;2022-08-21T08:28:45;10.77;;;3.22;;
54139;SDS011;40046;53.254;5.900;2022-08-21T08:31:13;10.25;;;2.67;;
54139;SDS011;40046;53.254;5.900;2022-08-21T08:33:39;10.75;;;2.90;;
54139;SDS011;40046;53.254;5.900;2022-08-21T08:36:05;6.55;;;2.40;;
54139;SDS011;40046;53.254;5.900;2022-08-21T08:38:37;13.25;;;2.83;;
54139;SDS011;40046;53.254;5.900;2022-08-21T08:41:10;7.72;;;2.53;;
54139;SDS011;40046;53.254;5.900;2022-08-21T08:43:42;10.55;;;3.75;;
54139;SDS011;40046;53.254;5.900;2022-08-21T08:46:15;12.27;;;2.83;;
54139;SDS011;40046;53.254;5.900;2022-08-21T08:48:45;11.00;;;3.72;;
54139;SDS011;40046;53.254;5.900;2022-08-21T08:51:15;9.82;;;2.53;;
54139;SDS011;40046;53.254;5.900;2022-08-21T08:54:00;6.43;;;1.95;;
54139;SDS011;40046;53.254;5.900;2022-08-21T08:56:30;8.80;;;2.50;;
54139;SDS011;40046;53.254;5.900;2022-08-21T08:58:59;6.85;;;1.70;;
54139;SDS011;40046;53.254;5.900;2022-08-21T09:01:46;8.45;;;3.25;;
54139;SDS011;40046;53.254;5.900;2022-08-21T09:04:12;10.38;;;2.55;;
54139;SDS011;40046;53.254;5.900;2022-08-21T09:07:31;15.77;;;3.45;;
54139;SDS011;40046;53.254;5.900;2022-08-21T09:12:32;9.80;;;2.40;;
54139;SDS011;40046;53.254;5.900;2022-08-21T09:15:16;8.50;;;2.85;;
54139;SDS011;40046;53.254;5.900;2022-08-21T09:20:28;12.88;;;3.00;;
54139;SDS011;40046;53.254;5.900;2022-08-21T09:28:34;8.93;;;1.80;;
54139;SDS011;40046;53.254;5.900;2022-08-21T09:31:03;11.98;;;2.20;;
54139;SDS011;40046;53.254;5.900;2022-08-21T09:33:32;13.38;;;2.90;;
54139;SDS011;40046;53.254;5.900;2022-08-21T09:35:58;9.70;;;3.67;;
54139;SDS011;40046;53.254;5.900;2022-08-21T09:38:31;5.38;;;2.00;;
54139;SDS011;40046;53.254;5.900;2022-08-21T09:41:01;5.88;;;1.73;;
54139;SDS011;40046;53.254;5.900;2022-08-21T09:43:29;8.05;;;2.28;;
54139;SDS011;40046;53.254;5.900;2022-08-21T09:48:57;7.85;;;1.95;;
54139;SDS011;40046;53.254;5.900;2022-08-21T09:53:56;7.40;;;2.13;;
54139;SDS011;40046;53.254;5.900;2022-08-21T09:56:39;6.22;;;2.22;;
54139;SDS011;40046;53.254;5.900;2022-08-21T09:59:36;13.70;;;5.38;;
54139;SDS011;40046;53.254;5.900;2022-08-21T10:02:48;8.25;;;2.35;;
54139;SDS011;40046;53.254;5.900;2022-08-21T10:05:01;7.65;;;1.98;;
54139;SDS011;40046;53.254;5.900;2022-08-21T10:07:29;7.57;;;2.25;;
54139;SDS011;40046;53.254;5.900;2022-08-21T10:10:04;13.05;;;5.30;;
54139;SDS011;40046;53.254;5.900;2022-08-21T10:12:33;9.23;;;3.05;;
54139;SDS011;40046;53.254;5.900;2022-08-21T10:23:18;4.80;;;1.55;;
54139;SDS011;40046;53.254;5.900;2022-08-21T10:26:07;11.13;;;2.22;;
54139;SDS011;40046;53.254;5.900;2022-08-21T10:31:49;6.93;;;1.80;;
54139;SDS011;40046;53.254;5.900;2022-08-21T10:42:35;3.93;;;1.27;;
54139;SDS011;40046;53.254;5.900;2022-08-21T10:48:07;8.30;;;1.00;;
54139;SDS011;40046;53.254;5.900;2022-08-21T10:53:35;4.32;;;1.10;;
54139;SDS011;40046;53.254;5.900;2022-08-21T10:59:02;4.82;;;1.40;;
54139;SDS011;40046;53.254;5.900;2022-08-21T11:01:32;3.50;;;1.25;;
54139;SDS011;40046;53.254;5.900;2022-08-21T11:06:52;6.55;;;1.15;;
54139;SDS011;40046;53.254;5.900;2022-08-21T11:09:28;5.13;;;1.30;;
54139;SDS011;40046;53.254;5.900;2022-08-21T11:11:57;5.45;;;1.50;;
54139;SDS011;40046;53.254;5.900;2022-08-21T11:17:11;4.05;;;1.15;;
54139;SDS011;40046;53.254;5.900;2022-08-21T11:25:23;5.53;;;1.35;;
54139;SDS011;40046;53.254;5.900;2022-08-21T11:27:58;7.63;;;2.47;;
54139;SDS011;40046;53.254;5.900;2022-08-21T11:30:33;5.60;;;1.20;;
54139;SDS011;40046;53.254;5.900;2022-08-21T11:33:16;5.47;;;1.33;;
54139;SDS011;40046;53.254;5.900;2022-08-21T11:35:59;5.75;;;1.20;;
54139;SDS011;40046;53.254;5.900;2022-08-21T11:43:43;4.53;;;1.38;;
54139;SDS011;40046;53.254;5.900;2022-08-21T11:46:25;6.47;;;1.40;;
54139;SDS011;40046;53.254;5.900;2022-08-21T11:49:29;6.70;;;1.75;;
54139;SDS011;40046;53.254;5.900;2022-08-21T11:54:40;6.15;;;1.42;;
54139;SDS011;40046;53.254;5.900;2022-08-21T11:59:39;6.38;;;1.58;;
54139;SDS011;40046;53.254;5.900;2022-08-21T12:02:21;6.80;;;1.45;;
54139;SDS011;40046;53.254;5.900;2022-08-21T12:04:54;5.75;;;2.00;;
54139;SDS011;40046;53.254;5.900;2022-08-21T12:07:37;7.95;;;1.60;;
54139;SDS011;40046;53.254;5.900;2022-08-21T12:10:12;7.00;;;1.75;;
54139;SDS011;40046;53.254;5.900;2022-08-21T12:17:39;4.75;;;1.88;;
54139;SDS011;40046;53.254;5.900;2022-08-21T12:22:54;6.57;;;1.67;;
54139;SDS011;40046;53.254;5.900;2022-08-21T12:25:39;9.23;;;1.70;;
54139;SDS011;40046;53.254;5.900;2022-08-21T12:28:09;8.23;;;1.65;;
54139;SDS011;40046;53.254;5.900;2022-08-21T12:30:39;3.45;;;0.90;;
54139;SDS011;40046;53.254;5.900;2022-08-21T12:36:29;5.45;;;1.38;;
54139;SDS011;40046;53.254;5.900;2022-08-21T12:41:20;7.05;;;1.80;;
54139;SDS011;40046;53.254;5.900;2022-08-21T12:43:53;5.65;;;1.40;;
54139;SDS011;40046;53.254;5.900;2022-08-21T12:46:32;6.03;;;1.23;;
54139;SDS011;40046;53.254;5.900;2022-08-21T12:49:48;5.63;;;1.70;;
54139;SDS011;40046;53.254;5.900;2022-08-21T12:52:12;4.82;;;0.98;;
54139;SDS011;40046;53.254;5.900;2022-08-21T12:54:45;6.82;;;2.42;;
54139;SDS011;40046;53.254;5.900;2022-08-21T12:57:22;5.07;;;1.10;;
54139;SDS011;40046;53.254;5.900;2022-08-21T12:59:56;3.08;;;1.10;;
54139;SDS011;40046;53.254;5.900;2022-08-21T13:02:31;8.15;;;1.40;;
54139;SDS011;40046;53.254;5.900;2022-08-21T13:05:04;5.00;;;1.38;;
54139;SDS011;40046;53.254;5.900;2022-08-21T13:07:32;3.88;;;1.02;;
54139;SDS011;40046;53.254;5.900;2022-08-21T13:10:05;5.50;;;1.30;;
54139;SDS011;40046;53.254;5.900;2022-08-21T13:12:53;4.93;;;1.27;;
54139;SDS011;40046;53.254;5.900;2022-08-21T13:15:27;9.10;;;1.92;;
54139;SDS011;40046;53.254;5.900;2022-08-21T13:20:31;4.70;;;1.23;;
54139;SDS011;40046;53.254;5.900;2022-08-21T13:23:05;3.70;;;1.00;;
54139;SDS011;40046;53.254;5.900;2022-08-21T13:25:40;6.55;;;1.10;;
54139;SDS011;40046;53.254;5.900;2022-08-21T13:28:08;6.25;;;1.20;;
54139;SDS011;40046;53.254;5.900;2022-08-21T13:30:40;6.80;;;1.70;;
54139;SDS011;40046;53.254;5.900;2022-08-21T13:35:46;6.57;;;1.17;;
54139;SDS011;40046;53.254;5.900;2022-08-21T13:38:22;5.43;;;1.38;;
54139;SDS011;40046;53.254;5.900;2022-08-21T13:40:53;5.28;;;1.42;;
54139;SDS011;40046;53.254;5.900;2022-08-21T13:43:24;6.30;;;2.00;;
54139;SDS011;40046;53.254;5.900;2022-08-21T13:45:54;5.68;;;1.60;;
54139;SDS011;40046;53.254;5.900;2022-08-21T13:48:22;3.67;;;1.08;;
54139;SDS011;40046;53.254;5.900;2022-08-21T13:50:50;4.57;;;1.20;;
54139;SDS011;40046;53.254;5.900;2022-08-21T13:53:36;4.35;;;0.90;;
54139;SDS011;40046;53.254;5.900;2022-08-21T13:59:05;7.10;;;1.13;;
54139;SDS011;40046;53.254;5.900;2022-08-21T14:04:20;5.88;;;1.38;;
54139;SDS011;40046;53.254;5.900;2022-08-21T14:06:49;3.92;;;1.25;;
54139;SDS011;40046;53.254;5.900;2022-08-21T14:09:35;6.00;;;2.10;;
54139;SDS011;40046;53.254;5.900;2022-08-21T14:12:16;2.90;;;0.82;;
54139;SDS011;40046;53.254;5.900;2022-08-21T14:14:49;7.15;;;2.05;;
54139;SDS011;40046;53.254;5.900;2022-08-21T14:20:13;4.53;;;1.33;;
54139;SDS011;40046;53.254;5.900;2022-08-21T14:22:55;7.07;;;2.00;;
54139;SDS011;40046;53.254;5.900;2022-08-21T14:30:19;8.50;;;1.35;;
54139;SDS011;40046;53.254;5.900;2022-08-21T14:33:08;9.82;;;2.15;;
54139;SDS011;40046;53.254;5.900;2022-08-21T14:35:42;6.65;;;1.30;;
54139;SDS011;40046;53.254;5.900;2022-08-21T14:38:11;10.35;;;2.05;;
54139;SDS011;40046;53.254;5.900;2022-08-21T14:40:41;7.13;;;1.35;;
54139;SDS011;40046;53.254;5.900;2022-08-21T14:43:08;7.60;;;1.77;;
54139;SDS011;40046;53.254;5.900;2022-08-21T14:45:34;6.07;;;1.40;;
54139;SDS011;40046;53.254;5.900;2022-08-21T14:48:02;5.65;;;1.42;;
54139;SDS011;40046;53.254;5.900;2022-08-21T14:50:28;5.50;;;1.13;;
54139;SDS011;40046;53.254;5.900;2022-08-21T14:52:54;8.10;;;1.65;;
54139;SDS011;40046;53.254;5.900;2022-08-21T14:55:20;7.85;;;2.15;;
54139;SDS011;40046;53.254;5.900;2022-08-21T14:57:47;7.55;;;2.00;;
54139;SDS011;40046;53.254;5.900;2022-08-21T15:00:16;4.78;;;1.38;;
54139;SDS011;40046;53.254;5.900;2022-08-21T15:02:44;6.75;;;1.67;;
54139;SDS011;40046;53.254;5.900;2022-08-21T15:05:10;8.27;;;1.30;;
54139;SDS011;40046;53.254;5.900;2022-08-21T15:07:37;10.60;;;1.40;;
54139;SDS011;40046;53.254;5.900;2022-08-21T15:10:03;7.63;;;1.80;;
54139;SDS011;40046;53.254;5.900;2022-08-21T15:12:29;7.93;;;2.00;;
54139;SDS011;40046;53.254;5.900;2022-08-21T15:14:55;7.75;;;2.15;;
54139;SDS011;40046;53.254;5.900;2022-08-21T15:17:21;5.65;;;1.73;;
54139;SDS011;40046;53.254;5.900;2022-08-21T15:19:46;4.97;;;1.70;;
54139;SDS011;40046;53.254;5.900;2022-08-21T15:22:13;7.55;;;2.03;;
54139;SDS011;40046;53.254;5.900;2022-08-21T15:24:39;4.78;;;1.83;;
54139;SDS011;40046;53.254;5.900;2022-08-21T15:27:06;5.72;;;1.48;;
54139;SDS011;40046;53.254;5.900;2022-08-21T15:29:33;6.28;;;1.45;;
54139;SDS011;40046;53.254;5.900;2022-08-21T15:32:00;5.47;;;1.70;;
54139;SDS011;40046;53.254;5.900;2022-08-21T15:34:39;7.65;;;1.55;;
54139;SDS011;40046;53.254;5.900;2022-08-21T15:37:05;8.55;;;2.53;;
54139;SDS011;40046;53.254;5.900;2022-08-21T15:39:33;6.57;;;2.05;;
54139;SDS011;40046;53.254;5.900;2022-08-21T15:42:00;9.45;;;1.90;;
54139;SDS011;40046;53.254;5.900;2022-08-21T15:44:27;6.25;;;1.25;;
54139;SDS011;40046;53.254;5.900;2022-08-21T15:46:54;5.60;;;1.70;;
54139;SDS011;40046;53.254;5.900;2022-08-21T15:49:21;7.00;;;1.90;;
54139;SDS011;40046;53.254;5.900;2022-08-21T15:51:47;9.95;;;1.77;;
54139;SDS011;40046;53.254;5.900;2022-08-21T15:54:13;7.63;;;1.85;;
54139;SDS011;40046;53.254;5.900;2022-08-21T15:56:39;7.45;;;1.70;;
54139;SDS011;40046;53.254;5.900;2022-08-21T15:59:12;7.72;;;1.50;;
54139;SDS011;40046;53.254;5.900;2022-08-21T16:01:47;6.22;;;1.90;;
54139;SDS011;40046;53.254;5.900;2022-08-21T16:04:22;6.53;;;2.50;;
54139;SDS011;40046;53.254;5.900;2022-08-21T16:06:52;8.73;;;1.67;;
54139;SDS011;40046;53.254;5.900;2022-08-21T16:09:19;6.28;;;1.83;;
54139;SDS011;40046;53.254;5.900;2022-08-21T16:11:45;9.02;;;1.70;;
54139;SDS011;40046;53.254;5.900;2022-08-21T16:14:12;7.55;;;2.22;;
54139;SDS011;40046;53.254;5.900;2022-08-21T16:16:40;8.55;;;2.28;;
54139;SDS011;40046;53.254;5.900;2022-08-21T16:19:06;6.28;;;1.63;;
54139;SDS011;40046;53.254;5.900;2022-08-21T16:21:33;5.75;;;1.63;;
54139;SDS011;40046;53.254;5.900;2022-08-21T16:23:59;6.25;;;1.88;;
54139;SDS011;40046;53.254;5.900;2022-08-21T16:26:25;5.00;;;1.90;;
54139;SDS011;40046;53.254;5.900;2022-08-21T16:28:52;10.02;;;2.78;;
54139;SDS011;40046;53.254;5.900;2022-08-21T16:31:22;6.70;;;2.08;;
54139;SDS011;40046;53.254;5.900;2022-08-21T16:33:49;9.15;;;2.15;;
54139;SDS011;40046;53.254;5.900;2022-08-21T16:36:20;7.10;;;2.15;;
54139;SDS011;40046;53.254;5.900;2022-08-21T16:38:46;9.18;;;2.72;;
54139;SDS011;40046;53.254;5.900;2022-08-21T16:41:14;5.80;;;2.33;;